Time;durP1;ratioP1;P1;durP2;ratioP2;P2;SDS_P1;SDS_P2;PMS_P1;PMS_P2;Temp;Humidity;BMP_temperature;BMP_pressure;BME280_temperature;BME280_humidity;BME280_pressure;Samples;Min_cycle;Max_cycle;Signal;HPM_P1;HPM_P2
2022/10/20 00:01:30;;;;;;;15.80;8.23;;;;;;;8.42;100.00;101875.97;7410031;19;20018;-74
2022/10/20 00:04:00;;;;;;;17.27;7.95;;;;;;;8.42;100.00;101875.97;7412294;19;20015;-75
2022/10/20 00:06:32;;;;;;;15.85;7.45;;;;;;;8.44;100.00;101881.25;7410273;19;20012;-75
2022/10/20 00:09:04;;;;;;;15.00;7.03;;;;;;;8.42;100.00;101872.47;7387344;19;20010;-69
2022/10/20 00:11:35;;;;;;;16.58;7.60;;;;;;;8.47;100.00;101863.06;7379080;19;20030;-69
2022/10/20 00:14:10;;;;;;;16.33;7.93;;;;;;;8.48;100.00;101857.91;7379259;19;20365;-69
2022/10/20 00:16:41;;;;;;;16.23;8.32;;;;;;;8.46;100.00;101845.59;7377385;19;20039;-69
2022/10/20 00:19:11;;;;;;;16.60;7.38;;;;;;;8.43;100.00;101842.88;7376203;19;20010;-75
2022/10/20 00:21:41;;;;;;;17.50;7.75;;;;;;;8.47;100.00;101848.28;7379414;19;20010;-74
2022/10/20 00:24:10;;;;;;;14.80;7.40;;;;;;;8.46;100.00;101848.22;7384427;19;20018;-75
2022/10/20 00:26:40;;;;;;;16.20;7.65;;;;;;;8.47;100.00;101835.22;7380454;19;20007;-75
2022/10/20 00:29:12;;;;;;;17.92;8.65;;;;;;;8.44;100.00;101836.81;7380184;19;20042;-74
2022/10/20 00:31:42;;;;;;;15.48;7.85;;;;;;;8.44;100.00;101834.22;7380933;19;20010;-75
2022/10/20 00:34:12;;;;;;;15.07;7.75;;;;;;;8.48;100.00;101825.66;7368933;19;20014;-74
2022/10/20 00:36:42;;;;;;;14.05;7.35;;;;;;;8.46;100.00;101828.19;7379049;19;20978;-74
2022/10/20 00:39:17;;;;;;;18.20;9.48;;;;;;;8.45;100.00;101831.66;7384617;19;20010;-75
2022/10/20 00:41:46;;;;;;;16.65;8.48;;;;;;;8.40;100.00;101822.75;7381344;19;20011;-75
2022/10/20 00:44:46;;;;;;;14.65;7.70;;;;;;;8.36;100.00;101825.19;7380098;19;20013;-75
2022/10/20 00:47:22;;;;;;;17.15;7.47;;;;;;;8.41;100.00;101831.47;7379268;19;20002;-75
2022/10/20 00:49:52;;;;;;;14.70;7.72;;;;;;;8.34;100.00;101826.84;7377942;19;20078;-75
2022/10/20 00:52:24;;;;;;;16.73;8.63;;;;;;;8.36;100.00;101809.50;7379974;19;20018;-75
2022/10/20 00:54:54;;;;;;;17.85;8.32;;;;;;;8.32;100.00;101823.28;7380026;19;20050;-75
2022/10/20 00:57:24;;;;;;;16.92;7.70;;;;;;;8.33;100.00;101828.56;7377691;19;20011;-75
2022/10/20 00:59:54;;;;;;;19.55;8.40;;;;;;;8.31;100.00;101825.00;7379492;19;20010;-75
2022/10/20 01:02:26;;;;;;;18.92;8.77;;;;;;;8.35;100.00;101819.06;7379678;19;20015;-75
2022/10/20 01:04:56;;;;;;;14.43;8.02;;;;;;;8.34;100.00;101813.78;7384666;19;20014;-74
2022/10/20 01:07:26;;;;;;;16.95;7.70;;;;;;;8.30;100.00;101824.94;7372054;19;20410;-75
2022/10/20 01:09:55;;;;;;;19.60;9.02;;;;;;;8.32;100.00;101818.06;7381841;19;20419;-75
2022/10/20 01:12:35;;;;;;;17.80;8.70;;;;;;;8.29;100.00;101787.47;7381077;19;20514;-75
2022/10/20 01:15:11;;;;;;;18.80;9.15;;;;;;;8.31;100.00;101775.34;7379911;19;20014;-75
2022/10/20 01:17:53;;;;;;;18.40;9.23;;;;;;;8.37;100.00;101777.31;7377805;19;20014;-74
2022/10/20 01:20:52;;;;;;;18.60;8.80;;;;;;;8.31;100.00;101767.50;7375932;19;20038;-74
2022/10/20 01:23:41;;;;;;;20.60;9.30;;;;;;;8.35;100.00;101768.50;7375469;19;20008;-75
2022/10/20 01:26:46;;;;;;;18.33;9.23;;;;;;;8.25;100.00;101772.50;7375306;19;20006;-69
2022/10/20 01:29:28;;;;;;;20.25;9.13;;;;;;;8.23;100.00;101760.22;7373606;19;20014;-69
2022/10/20 01:32:08;;;;;;;16.90;9.38;;;;;;;8.21;100.00;101762.78;7379962;19;20363;-69
2022/10/20 01:34:44;;;;;;;22.65;10.23;;;;;;;8.18;100.00;101757.44;7376094;19;20011;-69
2022/10/20 01:37:27;;;;;;;18.27;9.63;;;;;;;8.16;100.00;101762.59;7376526;19;20022;-69
2022/10/20 01:40:28;;;;;;;17.45;9.85;;;;;;;8.16;100.00;101754.75;7375300;19;20011;-69
2022/10/20 01:43:03;;;;;;;24.90;9.80;;;;;;;8.16;100.00;101759.09;7376831;19;20464;-69
2022/10/20 01:45:40;;;;;;;16.40;8.57;;;;;;;8.14;100.00;101748.59;7374392;19;20021;-69
2022/10/20 01:48:20;;;;;;;18.85;9.57;;;;;;;8.10;100.00;101723.19;7377357;19;20014;-69
2022/10/20 01:50:51;;;;;;;19.90;9.70;;;;;;;8.14;100.00;101721.56;7376913;19;20014;-69
2022/10/20 01:53:22;;;;;;;22.05;9.13;;;;;;;8.11;100.00;101711.00;7374496;19;20042;-69
2022/10/20 01:55:53;;;;;;;22.15;9.85;;;;;;;8.09;100.00;101713.56;7378220;19;20018;-71
2022/10/20 01:58:57;;;;;;;23.30;10.30;;;;;;;8.10;100.00;101714.44;7377224;19;20498;-70
2022/10/20 02:01:42;;;;;;;25.65;11.27;;;;;;;8.12;100.00;101705.84;7377072;19;20021;-70
2022/10/20 02:04:13;;;;;;;17.33;8.60;;;;;;;8.09;100.00;101705.72;7376559;19;20015;-70
2022/10/20 02:06:49;;;;;;;21.80;11.15;;;;;;;8.10;100.00;101711.84;7379160;19;20011;-70
2022/10/20 02:09:32;;;;;;;20.20;10.05;;;;;;;8.08;100.00;101709.16;7375990;19;20007;-70
2022/10/20 02:12:09;;;;;;;20.77;10.75;;;;;;;8.06;100.00;101699.50;7378988;19;20459;-70
2022/10/20 02:14:40;;;;;;;20.17;9.82;;;;;;;8.07;100.00;101691.72;7378310;19;20018;-70
2022/10/20 02:17:16;;;;;;;17.67;9.25;;;;;;;8.05;100.00;101697.72;7376450;19;20202;-70
2022/10/20 02:19:47;;;;;;;19.63;10.32;;;;;;;8.02;100.00;101681.94;7374739;19;20015;-70
2022/10/20 02:22:21;;;;;;;17.83;10.05;;;;;;;8.03;100.00;101671.53;7379113;19;20016;-70
2022/10/20 02:24:52;;;;;;;20.27;9.73;;;;;;;8.05;100.00;101662.03;7378076;19;20018;-75
2022/10/20 02:27:26;;;;;;;22.08;10.95;;;;;;;8.07;100.00;101646.41;7376827;19;20007;-75
2022/10/20 02:29:58;;;;;;;;;;;;;;;8.11;100.00;101637.84;7377432;19;20083;-75
2022/10/20 02:32:32;;;;;;;20.90;9.70;;;;;;;8.09;100.00;101639.50;7379086;19;19954;-75
2022/10/20 02:35:06;;;;;;;21.70;10.20;;;;;;;8.15;100.00;101635.41;7372576;19;20002;-75
2022/10/20 02:37:36;;;;;;;22.80;9.50;;;;;;;8.12;100.00;101627.44;7378018;19;20014;-75
2022/10/20 02:40:07;;;;;;;23.85;10.65;;;;;;;8.14;100.00;101620.56;7376813;19;20549;-75
2022/10/20 02:42:39;;;;;;;20.27;10.85;;;;;;;8.11;100.00;101614.34;7377158;19;20010;-75
2022/10/20 02:45:11;;;;;;;26.35;11.55;;;;;;;8.14;100.00;101612.72;7376831;19;20017;-75
2022/10/20 02:47:43;;;;;;;21.42;11.40;;;;;;;8.16;100.00;101610.16;7377288;19;20485;-75
2022/10/20 02:50:13;;;;;;;22.48;11.30;;;;;;;8.18;100.00;101606.75;7378367;19;20110;-74
2022/10/20 02:52:43;;;;;;;25.95;11.25;;;;;;;8.15;100.00;101606.66;7368758;19;20407;-75
2022/10/20 02:55:13;;;;;;;23.13;10.77;;;;;;;8.12;100.00;101600.44;7376919;19;20021;-75
2022/10/20 02:57:42;;;;;;;23.65;11.63;;;;;;;8.23;100.00;101609.53;7373371;19;20698;-75
2022/10/20 03:00:14;;;;;;;22.70;11.77;;;;;;;8.23;100.00;101592.97;7376985;19;20015;-75
2022/10/20 03:02:50;;;;;;;23.33;11.10;;;;;;;8.24;100.00;101594.75;7375656;19;20010;-74
2022/10/20 03:05:19;;;;;;;24.75;11.55;;;;;;;8.25;100.00;101583.47;7377706;19;20029;-75
2022/10/20 03:07:49;;;;;;;24.88;12.82;;;;;;;8.27;100.00;101582.69;7377660;19;20019;-70
2022/10/20 03:10:19;;;;;;;21.13;11.38;;;;;;;8.30;100.00;101584.50;7374104;19;20015;-70
2022/10/20 03:12:49;;;;;;;23.98;12.13;;;;;;;8.27;100.00;101579.19;7374069;19;20018;-70
2022/10/20 03:15:18;;;;;;;24.95;11.82;;;;;;;8.28;100.00;101563.53;7375621;19;20013;-70
2022/10/20 03:17:51;;;;;;;22.77;10.90;;;;;;;8.36;100.00;101558.59;7372634;19;20015;-70
2022/10/20 03:20:20;;;;;;;22.98;12.02;;;;;;;8.29;100.00;101561.81;7372935;19;20010;-70
2022/10/20 03:22:50;;;;;;;26.38;11.40;;;;;;;8.31;100.00;101560.16;7374806;19;20510;-70
2022/10/20 03:25:21;;;;;;;21.77;10.18;;;;;;;8.38;100.00;101557.78;7376939;19;20034;-70
2022/10/20 03:27:51;;;;;;;23.88;11.73;;;;;;;8.36;100.00;101550.75;7371167;19;20011;-70
2022/10/20 03:30:22;;;;;;;29.15;14.98;;;;;;;8.45;100.00;101554.53;7375144;19;20093;-70
2022/10/20 03:32:55;;;;;;;30.00;13.98;;;;;;;8.38;100.00;101556.91;7375773;19;20015;-75
2022/10/20 03:35:24;;;;;;;27.27;12.38;;;;;;;8.35;100.00;101554.19;7376873;19;20019;-75
2022/10/20 03:37:54;;;;;;;26.67;12.23;;;;;;;8.47;100.00;101565.06;7376966;19;20042;-75
2022/10/20 03:40:24;;;;;;;21.58;11.10;;;;;;;8.45;100.00;101559.78;7372828;19;20018;-75
2022/10/20 03:42:54;;;;;;;30.75;12.60;;;;;;;8.47;100.00;101539.81;7375198;19;20025;-75
2022/10/20 03:45:24;;;;;;;35.15;13.32;;;;;;;8.50;100.00;101536.41;7381257;19;20025;-75
2022/10/20 03:47:56;;;;;;;25.63;12.63;;;;;;;8.53;100.00;101526.03;7373239;19;20035;-75
2022/10/20 03:50:26;;;;;;;24.13;12.02;;;;;;;8.60;100.00;101528.00;7380783;19;20007;-75
2022/10/20 03:52:57;;;;;;;24.88;12.63;;;;;;;8.59;100.00;101527.97;7377669;19;20015;-75
2022/10/20 03:55:26;;;;;;;27.38;13.48;;;;;;;8.55;100.00;101541.78;7383695;19;20015;-76
2022/10/20 03:57:56;;;;;;;24.05;12.50;;;;;;;8.52;100.00;101550.41;7383850;19;20364;-75
2022/10/20 04:00:25;;;;;;;32.95;14.32;;;;;;;8.55;100.00;101552.25;7379951;19;20014;-75
2022/10/20 04:02:58;;;;;;;29.13;13.65;;;;;;;8.63;100.00;101549.03;7381475;19;20982;-75
2022/10/20 04:05:27;;;;;;;30.60;13.60;;;;;;;8.66;100.00;101554.38;7376403;19;20007;-75
2022/10/20 04:07:57;;;;;;;32.80;14.45;;;;;;;8.71;100.00;101541.44;7377132;19;20014;-75
2022/10/20 04:10:27;;;;;;;29.10;14.30;;;;;;;8.81;100.00;101533.94;7378069;19;20013;-75
2022/10/20 04:12:59;;;;;;;30.88;13.68;;;;;;;8.69;100.00;101528.31;7381184;19;20010;-75
2022/10/20 04:15:29;;;;;;;31.70;15.77;;;;;;;8.69;100.00;101527.44;7379407;19;20010;-75
2022/10/20 04:18:01;;;;;;;31.02;13.95;;;;;;;8.67;100.00;101518.66;7379741;19;20484;-75
2022/10/20 04:20:31;;;;;;;33.30;14.40;;;;;;;8.73;100.00;101529.31;7379916;19;20017;-76
2022/10/20 04:23:00;;;;;;;30.58;15.20;;;;;;;8.76;100.00;101525.06;7377264;19;20074;-75
2022/10/20 04:25:30;;;;;;;27.58;13.70;;;;;;;8.77;100.00;101516.38;7376132;19;20014;-75
2022/10/20 04:28:00;;;;;;;32.28;15.60;;;;;;;8.80;100.00;101511.22;7380839;19;20014;-76
2022/10/20 04:30:30;;;;;;;28.85;13.85;;;;;;;8.87;100.00;101503.56;7383154;19;20660;-75
2022/10/20 04:33:02;;;;;;;33.42;15.07;;;;;;;8.85;100.00;101503.53;7378533;19;20458;-76
2022/10/20 04:35:32;;;;;;;31.63;14.98;;;;;;;8.84;100.00;101492.19;7380453;19;20014;-75
2022/10/20 04:38:02;;;;;;;28.33;15.50;;;;;;;8.90;100.00;101474.91;7380711;19;20018;-76
2022/10/20 04:40:32;;;;;;;32.80;14.48;;;;;;;8.92;100.00;101475.81;7376506;19;20014;-76
2022/10/20 04:43:02;;;;;;;40.45;17.13;;;;;;;8.91;100.00;101481.91;7379602;19;20014;-75
2022/10/20 04:45:31;;;;;;;32.28;16.52;;;;;;;8.99;100.00;101490.88;7379320;19;20015;-76
2022/10/20 04:48:06;;;;;;;39.38;17.52;;;;;;;9.05;100.00;101496.28;7378526;19;20026;-76
2022/10/20 04:50:36;;;;;;;34.90;16.10;;;;;;;9.06;100.00;101505.91;7382690;19;20348;-75
2022/10/20 04:53:06;;;;;;;36.92;17.75;;;;;;;9.04;100.00;101512.81;7376814;19;20047;-75
2022/10/20 04:55:36;;;;;;;38.38;17.85;;;;;;;9.08;100.00;101506.84;7381110;19;20014;-75
2022/10/20 04:58:07;;;;;;;39.05;18.70;;;;;;;9.04;100.00;101502.34;7378208;19;20064;-76
2022/10/20 05:00:40;;;;;;;33.05;14.73;;;;;;;9.06;100.00;101491.09;7378213;19;20026;-75
2022/10/20 05:03:12;;;;;;;42.67;18.02;;;;;;;9.02;100.00;101467.41;7380156;19;20011;-75
2022/10/20 05:05:42;;;;;;;37.25;17.80;;;;;;;9.02;100.00;101449.97;7380271;19;20025;-76
2022/10/20 05:08:12;;;;;;;34.25;15.60;;;;;;;9.06;100.00;101430.03;7381814;19;20098;-75
2022/10/20 05:10:42;;;;;;;42.95;16.50;;;;;;;9.01;100.00;101447.31;7379360;19;20029;-75
2022/10/20 05:13:11;;;;;;;35.83;17.33;;;;;;;9.01;100.00;101458.69;7379937;19;20756;-75
2022/10/20 05:15:41;;;;;;;34.50;16.05;;;;;;;9.06;100.00;101450.97;7377823;19;20010;-75
2022/10/20 05:18:13;;;;;;;39.78;17.30;;;;;;;9.04;100.00;101457.88;7375652;19;20030;-75
2022/10/20 05:20:43;;;;;;;36.63;16.63;;;;;;;9.09;100.00;101446.69;7378547;19;20014;-76
2022/10/20 05:23:33;;;;;;;39.10;16.40;;;;;;;9.06;100.00;101432.66;7380639;19;20380;-76
2022/10/20 05:26:04;;;;;;;32.25;15.63;;;;;;;9.06;100.00;101432.66;7374605;19;20452;-76
2022/10/20 05:28:34;;;;;;;36.03;14.93;;;;;;;9.13;100.00;101434.59;7378592;19;20098;-76
2022/10/20 05:31:04;;;;;;;31.10;14.57;;;;;;;9.18;100.00;101433.00;7379617;19;20022;-77
2022/10/20 05:33:37;;;;;;;39.53;17.35;;;;;;;9.19;100.00;101426.91;7373978;19;20026;-76
2022/10/20 05:36:11;;;;;;;33.28;15.75;;;;;;;9.18;100.00;101419.91;7379602;19;20014;-76
2022/10/20 05:38:41;;;;;;;31.65;14.88;;;;;;;9.23;100.00;101418.31;7379054;19;20435;-76
2022/10/20 05:41:13;;;;;;;33.08;15.75;;;;;;;9.17;100.00;101405.06;7373795;19;20010;-76
2022/10/20 05:43:43;;;;;;;28.80;14.05;;;;;;;9.17;100.00;101397.19;7377843;19;20019;-76
2022/10/20 05:46:13;;;;;;;29.42;14.38;;;;;;;9.24;100.00;101399.16;7377524;19;20014;-76
2022/10/20 05:48:46;;;;;;;29.42;14.40;;;;;;;9.18;100.00;101394.63;7378913;19;20029;-76
2022/10/20 05:51:19;;;;;;;39.10;16.52;;;;;;;9.18;100.00;101388.50;7375626;19;20056;-76
2022/10/20 05:53:49;;;;;;;31.77;15.60;;;;;;;9.21;100.00;101401.69;7376158;19;20051;-76
2022/10/20 05:56:20;;;;;;;30.95;15.15;;;;;;;9.16;100.00;101398.03;7379990;19;20022;-76
2022/10/20 05:59:00;;;;;;;35.53;15.75;;;;;;;9.13;100.00;101400.56;7377709;19;20343;-70
2022/10/20 06:01:38;;;;;;;34.05;15.13;;;;;;;9.10;100.00;101403.09;7375589;19;20361;-72
2022/10/20 06:04:10;;;;;;;33.25;14.75;;;;;;;9.13;100.00;101398.84;7377031;19;20387;-76
2022/10/20 06:06:44;;;;;;;34.25;15.00;;;;;;;9.16;100.00;101390.19;7377722;19;20085;-76
2022/10/20 06:09:16;;;;;;;32.33;14.07;;;;;;;9.21;100.00;101387.69;7379297;19;20006;-76
2022/10/20 06:11:48;;;;;;;38.45;16.25;;;;;;;9.16;100.00;101400.66;7377424;19;20443;-75
2022/10/20 06:14:21;;;;;;;29.83;13.73;;;;;;;9.25;100.00;101400.03;7375128;19;20014;-76
2022/10/20 06:16:53;;;;;;;32.42;15.23;;;;;;;9.19;100.00;101390.28;7378704;19;20018;-77
2022/10/20 06:19:28;;;;;;;25.60;13.77;;;;;;;9.23;100.00;101380.78;7373856;19;20759;-71
2022/10/20 06:22:00;;;;;;;;;;;;;;;9.21;100.00;101383.34;7376020;19;20021;-71
2022/10/20 06:24:35;;;;;;;33.13;15.50;;;;;;;9.15;100.00;101383.19;7377276;19;19918;-75
2022/10/20 06:27:05;;;;;;;30.83;16.27;;;;;;;9.15;100.00;101386.69;7374974;19;20082;-76
2022/10/20 06:29:40;;;;;;;35.25;14.40;;;;;;;9.23;100.00;101378.16;7374844;19;20051;-71
2022/10/20 06:32:10;;;;;;;40.03;17.05;;;;;;;9.18;100.00;101388.50;7374906;19;20458;-76
2022/10/20 06:35:03;;;;;;;36.08;15.93;;;;;;;9.22;100.00;101406.06;7375398;19;20342;-77
2022/10/20 06:37:32;;;;;;;31.85;14.57;;;;;;;9.26;100.00;101410.53;7378152;19;20508;-75
2022/10/20 06:40:02;;;;;;;36.10;16.08;;;;;;;9.22;100.00;101403.44;7375568;19;20090;-76
2022/10/20 06:42:32;;;;;;;31.65;15.45;;;;;;;9.28;100.00;101394.88;7373510;19;20006;-76
2022/10/20 06:45:02;;;;;;;29.55;14.25;;;;;;;9.28;100.00;101393.16;7374068;19;20042;-75
2022/10/20 06:47:32;;;;;;;31.77;14.98;;;;;;;9.28;100.00;101380.06;7368594;19;20498;-76
2022/10/20 06:50:09;;;;;;;35.97;16.13;;;;;;;9.37;100.00;101389.88;7373281;19;20018;-71
2022/10/20 06:52:42;;;;;;;35.60;16.60;;;;;;;9.35;100.00;101379.38;7367657;19;20034;-71
2022/10/20 06:55:12;;;;;;;32.03;15.80;;;;;;;9.32;100.00;101376.69;7372567;19;20011;-70
2022/10/20 06:57:42;;;;;;;33.28;15.98;;;;;;;9.37;100.00;101374.16;7369785;19;20002;-70
2022/10/20 07:00:16;;;;;;;36.92;15.18;;;;;;;9.35;100.00;101376.75;7367218;19;20014;-70
2022/10/20 07:02:46;;;;;;;29.35;14.80;;;;;;;9.35;100.00;101378.50;7371374;19;20086;-70
2022/10/20 07:05:20;;;;;;;32.50;15.80;;;;;;;9.34;100.00;101380.22;7370854;19;20022;-72
2022/10/20 07:07:50;;;;;;;;;;;;;;;9.32;100.00;101371.44;7370871;19;20011;-70
2022/10/20 07:10:20;;;;;;;32.28;14.27;;;;;;;9.35;100.00;101370.66;7375199;19;19923;-70
2022/10/20 07:12:50;;;;;;;25.17;12.10;;;;;;;9.42;100.00;101373.44;7373019;19;20011;-71
2022/10/20 07:15:20;;;;;;;41.92;16.98;;;;;;;9.44;100.00;101374.34;7375685;19;20022;-71
2022/10/20 07:17:50;;;;;;;34.72;15.60;;;;;;;9.48;100.00;101357.88;7374109;19;20337;-71
2022/10/20 07:20:24;;;;;;;33.17;15.10;;;;;;;9.54;100.00;101361.50;7378122;19;20010;-71
2022/10/20 07:22:54;;;;;;;31.40;14.93;;;;;;;9.50;100.00;101358.81;7379388;19;20018;-76
2022/10/20 07:25:23;;;;;;;31.52;14.38;;;;;;;9.54;100.00;101358.88;7381467;19;20475;-76
2022/10/20 07:27:53;;;;;;;35.92;16.42;;;;;;;9.62;100.00;101368.72;7381696;19;20014;-75
2022/10/20 07:30:23;;;;;;;36.72;17.17;;;;;;;9.71;100.00;101365.44;7377953;19;20019;-76
2022/10/20 07:32:52;;;;;;;32.58;14.55;;;;;;;9.71;100.00;101360.19;7377017;19;20014;-75
2022/10/20 07:35:25;;;;;;;30.88;15.93;;;;;;;9.70;100.00;101358.44;7376742;19;20014;-75
2022/10/20 07:37:54;;;;;;;36.50;16.92;;;;;;;9.71;100.00;101344.50;7376806;19;20126;-75
2022/10/20 07:40:24;;;;;;;31.88;15.55;;;;;;;9.76;100.00;101343.75;7376623;19;20603;-75
2022/10/20 07:43:14;;;;;;;29.95;15.30;;;;;;;9.79;100.00;101350.81;7374915;19;20018;-75
2022/10/20 07:45:44;;;;;;;32.20;16.08;;;;;;;9.85;100.00;101366.66;7378150;19;20018;-76
2022/10/20 07:48:14;;;;;;;33.40;15.18;;;;;;;9.94;100.00;101358.16;7375419;19;20025;-75
2022/10/20 07:50:47;;;;;;;35.42;16.20;;;;;;;9.91;100.00;101363.31;7375449;19;20098;-77
2022/10/20 07:53:17;;;;;;;33.47;15.15;;;;;;;10.00;100.00;101366.16;7380772;19;20006;-75
2022/10/20 07:55:51;;;;;;;31.67;14.73;;;;;;;10.04;100.00;101366.25;7382654;19;20042;-76
2022/10/20 07:58:21;;;;;;;31.00;14.77;;;;;;;10.09;100.00;101369.88;7380403;19;20026;-76
2022/10/20 08:00:50;;;;;;;33.72;15.35;;;;;;;10.13;100.00;101370.84;7372926;19;20578;-75
2022/10/20 08:03:20;;;;;;;35.67;15.73;;;;;;;10.16;100.00;101373.53;7374244;19;20015;-76
2022/10/20 08:05:52;;;;;;;34.33;15.88;;;;;;;10.19;100.00;101364.84;7374265;19;20038;-76
2022/10/20 08:08:22;;;;;;;36.67;15.90;;;;;;;10.24;100.00;101361.53;7380598;19;20014;-76
2022/10/20 08:10:51;;;;;;;33.50;16.30;;;;;;;10.31;100.00;101370.41;7381314;19;20007;-76
2022/10/20 08:13:21;;;;;;;31.88;15.90;;;;;;;10.35;100.00;101362.66;7380716;19;20011;-76
2022/10/20 08:15:51;;;;;;;44.20;15.23;;;;;;;10.41;100.00;101361.88;7378138;19;20007;-76
2022/10/20 08:18:23;;;;;;;33.70;15.95;;;;;;;10.43;100.00;101357.53;7378789;19;20015;-76
2022/10/20 08:20:56;;;;;;;31.52;15.07;;;;;;;10.49;100.00;101365.53;7378850;19;20082;-76
2022/10/20 08:23:25;;;;;;;30.00;15.23;;;;;;;10.50;100.00;101348.97;7372821;19;20010;-75
2022/10/20 08:25:57;;;;;;;32.72;16.20;;;;;;;10.58;100.00;101355.25;7378117;19;20070;-76
2022/10/20 08:28:27;;;;;;;31.33;15.57;;;;;;;10.62;100.00;101341.34;7382206;19;20014;-75
2022/10/20 08:30:56;;;;;;;31.85;16.45;;;;;;;10.64;100.00;101351.88;7378721;19;20083;-75
2022/10/20 08:33:26;;;;;;;29.92;14.75;;;;;;;10.70;100.00;101342.41;7374051;19;20010;-75
2022/10/20 08:36:03;;;;;;;34.03;16.05;;;;;;;10.74;100.00;101331.13;7376289;19;20516;-76
2022/10/20 08:38:33;;;;;;;30.63;15.18;;;;;;;10.78;100.00;101332.94;7375092;19;20013;-76
2022/10/20 08:41:03;;;;;;;33.08;16.23;;;;;;;10.84;100.00;101320.81;7372782;19;20015;-76
2022/10/20 08:43:35;;;;;;;36.55;16.17;;;;;;;10.90;100.00;101326.19;7375197;19;20018;-77
2022/10/20 08:46:06;;;;;;;32.85;15.77;;;;;;;10.91;100.00;101318.34;7377154;19;20062;-76
2022/10/20 08:48:36;;;;;;;29.92;14.73;;;;;;;10.96;100.00;101321.03;7378530;19;20029;-76
2022/10/20 08:51:16;;;;;;;31.95;15.82;;;;;;;11.00;100.00;101322.88;7378126;19;20102;-76
2022/10/20 08:53:46;;;;;;;29.63;16.15;;;;;;;11.06;100.00;101316.00;7373453;19;20014;-76
2022/10/20 08:56:17;;;;;;;29.52;14.48;;;;;;;11.12;100.00;101318.75;7380066;19;20573;-76
2022/10/20 08:58:48;;;;;;;32.67;16.63;;;;;;;11.19;100.00;101313.59;7377835;19;20432;-77
2022/10/20 09:01:26;;;;;;;31.10;15.80;;;;;;;11.22;100.00;101313.66;7375692;19;20030;-70
2022/10/20 09:04:00;;;;;;;29.83;15.13;;;;;;;11.28;100.00;101298.00;7377882;19;20010;-70
2022/10/20 09:06:50;;;;;;;35.60;15.35;;;;;;;11.28;100.00;101314.66;7377032;19;20014;-70
2022/10/20 09:09:30;;;;;;;31.67;14.93;;;;;;;11.32;100.00;101297.22;7376592;19;20052;-70
2022/10/20 09:12:08;;;;;;;33.08;14.98;;;;;;;11.33;100.00;101305.13;7379230;19;20014;-70
2022/10/20 09:14:39;;;;;;;32.00;15.23;;;;;;;11.37;100.00;101291.19;7375880;19;20389;-70
2022/10/20 09:17:19;;;;;;;32.63;16.10;;;;;;;11.44;100.00;101292.13;7378922;19;20010;-70
2022/10/20 09:19:56;;;;;;;35.55;15.85;;;;;;;11.56;100.00;101289.72;7377002;19;20007;-71
2022/10/20 09:22:32;;;;;;;34.05;15.88;;;;;;;11.57;100.00;101278.34;7374385;19;20027;-76
2022/10/20 09:25:06;;;;;;;33.10;15.02;;;;;;;11.60;100.00;101264.38;7376473;19;20579;-70
2022/10/20 09:27:47;;;;;;;28.52;15.63;;;;;;;11.67;100.00;101261.00;7368089;19;20015;-70
2022/10/20 09:30:33;;;;;;;30.60;15.18;;;;;;;11.70;100.00;101266.28;7374928;19;20117;-70
2022/10/20 09:33:24;;;;;;;29.67;15.85;;;;;;;11.73;100.00;101268.97;7375228;19;20030;-70
2022/10/20 09:36:09;;;;;;;27.50;13.98;;;;;;;11.77;100.00;101273.44;7372681;19;20010;-70
2022/10/20 09:38:46;;;;;;;36.35;16.33;;;;;;;11.80;100.00;101265.59;7370307;19;20011;-70
2022/10/20 09:41:21;;;;;;;29.85;15.25;;;;;;;11.89;100.00;101278.88;7359013;19;20011;-70
2022/10/20 09:43:57;;;;;;;30.48;14.73;;;;;;;11.90;100.00;101296.41;7369982;19;20006;-70
2022/10/20 09:46:29;;;;;;;30.92;14.27;;;;;;;11.95;100.00;101286.88;7374147;19;20041;-70
2022/10/20 09:49:00;;;;;;;29.07;14.63;;;;;;;12.03;100.00;101289.59;7374321;19;20006;-70
2022/10/20 09:51:34;;;;;;;30.73;13.93;;;;;;;12.06;100.00;101282.66;7376524;19;20023;-70
2022/10/20 09:54:18;;;;;;;26.88;14.07;;;;;;;12.09;100.00;101263.41;7372450;19;20015;-70
2022/10/20 09:56:55;;;;;;;29.23;14.38;;;;;;;12.19;100.00;101260.03;7377617;19;20023;-70
2022/10/20 09:59:33;;;;;;;31.83;15.43;;;;;;;12.22;100.00;101251.31;7375565;19;20074;-70
2022/10/20 10:02:33;;;;;;;32.42;15.57;;;;;;;12.24;100.00;101247.84;7379212;19;20014;-71
2022/10/20 10:05:22;;;;;;;28.60;14.50;;;;;;;12.30;100.00;101261.06;7377960;19;20040;-70
2022/10/20 10:08:00;;;;;;;29.95;14.85;;;;;;;12.35;100.00;101258.50;7378514;19;20098;-71
2022/10/20 10:10:39;;;;;;;32.50;15.73;;;;;;;12.40;100.00;101248.91;7380206;19;20017;-70
2022/10/20 10:13:23;;;;;;;29.83;15.43;;;;;;;12.46;100.00;101256.00;7377546;19;20018;-70
2022/10/20 10:16:14;;;;;;;29.77;14.57;;;;;;;12.51;100.00;101244.63;7377911;19;20047;-70
2022/10/20 10:19:00;;;;;;;30.27;14.88;;;;;;;12.54;100.00;101218.34;7374804;19;20541;-69
2022/10/20 10:21:44;;;;;;;28.90;15.00;;;;;;;12.61;100.00;101200.88;7376909;19;20049;-70
2022/10/20 10:24:34;;;;;;;31.75;15.23;;;;;;;12.65;100.00;101189.53;7369595;19;20018;-70
2022/10/20 10:27:08;;;;;;;28.77;15.18;;;;;;;12.70;100.00;101187.81;7376694;19;20017;-69
2022/10/20 10:29:38;;;;;;;31.40;14.43;;;;;;;12.73;100.00;101201.91;7374329;19;20349;-70
2022/10/20 10:32:17;;;;;;;30.58;14.50;;;;;;;12.76;100.00;101196.66;7372992;19;20465;-69
2022/10/20 10:35:06;;;;;;;27.50;14.48;;;;;;;12.80;100.00;101188.78;7371957;19;20015;-74
2022/10/20 10:37:38;;;;;;;28.38;14.98;;;;;;;12.81;100.00;101185.28;7375840;19;20014;-73
2022/10/20 10:40:17;;;;;;;28.85;14.07;;;;;;;12.85;100.00;101187.09;7368631;19;20018;-73
2022/10/20 10:43:09;;;;;;;27.20;14.57;;;;;;;12.91;100.00;101184.53;7374728;19;20025;-74
2022/10/20 10:45:53;;;;;;;31.02;14.73;;;;;;;12.98;100.00;101178.44;7373889;19;20014;-75
2022/10/20 10:48:32;;;;;;;;;;;;;;;12.97;100.00;101172.28;7372555;19;20018;-74
2022/10/20 10:51:06;;;;;;;31.92;15.50;;;;;;;12.99;100.00;101165.28;7374725;19;19980;-75
2022/10/20 10:53:51;;;;;;;28.17;15.88;;;;;;;13.00;100.00;101166.16;7368419;19;20010;-76
2022/10/20 10:56:33;;;;;;;30.63;15.68;;;;;;;13.09;100.00;101168.88;7376947;19;20030;-75
2022/10/20 10:59:12;;;;;;;27.83;15.23;;;;;;;13.13;100.00;101177.69;7371292;19;20498;-75
2022/10/20 11:01:58;;;;;;;29.35;14.93;;;;;;;13.18;100.00;101165.47;7371101;19;20059;-75
2022/10/20 11:04:50;;;;;;;29.25;15.02;;;;;;;13.26;100.00;101169.06;7372076;19;20022;-75
2022/10/20 11:07:31;;;;;;;32.97;14.35;;;;;;;13.29;100.00;101169.97;7371725;19;20018;-75
2022/10/20 11:10:09;;;;;;;28.75;15.02;;;;;;;13.31;100.00;101173.50;7371724;19;20027;-75
2022/10/20 11:13:00;;;;;;;30.05;16.52;;;;;;;13.36;100.00;101194.59;7373925;19;20011;-76
2022/10/20 11:15:53;;;;;;;32.20;15.50;;;;;;;13.47;100.00;101187.66;7373329;19;20019;-76
2022/10/20 11:18:39;;;;;;;30.13;15.73;;;;;;;13.46;100.00;101166.56;7373353;19;20013;-75
2022/10/20 11:21:21;;;;;;;31.75;14.93;;;;;;;13.58;100.00;101149.03;7370763;19;20948;-75
2022/10/20 11:24:16;;;;;;;30.67;15.30;;;;;;;13.69;100.00;101155.25;7371830;19;20264;-75
2022/10/20 11:26:51;;;;;;;32.53;15.60;;;;;;;13.73;100.00;101177.25;7375157;19;20070;-75
2022/10/20 11:29:29;;;;;;;31.83;16.02;;;;;;;13.70;100.00;101182.50;7377571;19;20026;-74
2022/10/20 11:32:10;;;;;;;29.77;15.15;;;;;;;13.71;100.00;101187.78;7374497;19;20078;-75
2022/10/20 11:34:46;;;;;;;28.85;14.85;;;;;;;13.62;100.00;101194.75;7371825;19;20018;-75
2022/10/20 11:37:24;;;;;;;32.75;16.23;;;;;;;13.57;100.00;101199.09;7374749;19;20017;-74
2022/10/20 11:39:59;;;;;;;31.10;16.25;;;;;;;13.57;100.00;101191.19;7372304;19;20018;-72
2022/10/20 11:42:43;;;;;;;26.25;15.38;;;;;;;13.59;100.00;101195.59;7373202;19;20013;-73